Terminal Aerodrome Forecast
Issued by NWS

Home | Current Version | Previous Version | Text Only | Print | Product List | Glossary Off
Versions: 1 2 3 4 5 6 7 8 9 10 11 12 13 14 15 16 17 18 19 20 21 22 23 24 25 26 27

000
FTUS43 KLOT 230523
TAFMDW
TAF
KMDW 230523Z 2306/2406 22009KT P6SM VCSH SCT060 OVC100
     FM230800 22007KT P6SM SCT025 OVC060
     FM231300 20008KT 6SM -SHRA BKN025 OVC040
     FM232100 13007KT P6SM VCSH BKN035 OVC050
     FM240000 06005KT P6SM VCSH OVC030=

USA.gov is the U.S. government's official web portal to all federal, state and local government web resources and services.